createdAt,value
2018-11-03T00:02:05.906Z,53.63
2018-11-03T00:04:34.379Z,53.80
2018-11-03T00:07:03.156Z,54.06
2018-11-03T00:09:31.673Z,53.73
2018-11-03T00:12:01.162Z,53.63
2018-11-03T00:14:29.643Z,54.06
2018-11-03T00:16:58.042Z,53.94
2018-11-03T00:19:26.414Z,53.82
2018-11-03T00:21:54.812Z,53.99
2018-11-03T00:24:23.241Z,53.90
2018-11-03T00:26:51.678Z,53.92
2018-11-03T00:29:20.026Z,53.77
2018-11-03T00:31:48.444Z,53.99
2018-11-03T00:34:16.885Z,53.95
2018-11-03T00:36:45.786Z,53.82
2018-11-03T00:39:14.230Z,54.29
2018-11-03T00:41:42.620Z,54.28
2018-11-03T00:44:11.026Z,53.87
2018-11-03T00:46:39.437Z,54.12
2018-11-03T00:49:07.822Z,54.29
2018-11-03T00:51:39.591Z,54.03
2018-11-03T00:54:07.989Z,54.16
2018-11-03T00:56:36.363Z,53.77
2018-11-03T00:59:04.906Z,54.01
2018-11-03T01:01:33.399Z,54.13
2018-11-03T01:04:02.824Z,54.13
2018-11-03T01:06:31.238Z,54.29
2018-11-03T01:08:59.684Z,53.89
2018-11-03T01:11:28.167Z,54.28
2018-11-03T01:13:56.627Z,53.87
2018-11-03T01:16:25.073Z,54.06
2018-11-03T01:18:53.487Z,54.04
2018-11-03T01:21:22.011Z,54.22
2018-11-03T01:23:50.496Z,54.34
2018-11-03T01:26:18.959Z,54.33
2018-11-03T01:28:47.404Z,54.33
2018-11-03T01:31:15.828Z,54.33
2018-11-03T01:33:44.281Z,54.21
2018-11-03T01:36:12.758Z,54.25
2018-11-03T01:38:41.189Z,54.33
2018-11-03T01:46:10.936Z,54.13
2018-11-03T01:48:39.472Z,54.38
2018-11-03T01:51:07.933Z,54.27
2018-11-03T01:53:36.408Z,54.30
2018-11-03T01:56:05.319Z,54.47
2018-11-03T01:58:33.758Z,54.23
2018-11-03T02:01:02.175Z,54.36
2018-11-03T02:03:30.604Z,54.40
2018-11-03T02:05:59.097Z,54.41
2018-11-03T02:08:28.076Z,54.74
2018-11-03T02:10:56.606Z,54.51
2018-11-03T02:13:25.062Z,54.67
2018-11-03T02:15:53.435Z,54.61
2018-11-03T02:18:21.830Z,54.30
2018-11-03T02:20:50.340Z,54.41
2018-11-03T02:23:18.732Z,54.64
2018-11-03T02:25:47.255Z,54.66
2018-11-03T02:28:15.652Z,54.60
2018-11-03T02:30:44.085Z,54.61
2018-11-03T02:33:12.583Z,54.56
2018-11-03T02:35:44.487Z,54.88
2018-11-03T02:38:12.978Z,54.80
2018-11-03T02:40:41.409Z,54.70
2018-11-03T02:43:10.016Z,54.73
2018-11-03T02:45:38.447Z,54.75
2018-11-03T02:48:06.944Z,54.64
2018-11-03T02:50:35.401Z,55.25
2018-11-03T02:53:04.479Z,54.63
2018-11-03T02:55:32.978Z,54.97
2018-11-03T02:58:01.807Z,54.90
2018-11-03T03:00:30.228Z,54.82
2018-11-03T03:02:58.720Z,54.95
2018-11-03T03:05:27.440Z,54.86
2018-11-03T03:07:55.857Z,54.52
2018-11-03T03:10:24.292Z,54.68
2018-11-03T03:12:52.721Z,54.88
2018-11-03T03:15:21.786Z,54.82
2018-11-03T03:17:50.253Z,54.94
2018-11-03T03:20:18.693Z,54.94
2018-11-03T03:22:47.139Z,54.71
2018-11-03T03:25:15.624Z,54.74
2018-11-03T03:27:44.113Z,55.07
2018-11-03T03:30:12.610Z,54.83
2018-11-03T03:32:41.083Z,55.15
2018-11-03T03:35:09.524Z,54.89
2018-11-03T03:37:38.320Z,54.95
2018-11-03T03:40:07.816Z,55.05
2018-11-03T03:42:36.310Z,55.01
2018-11-03T03:45:06.282Z,54.31
2018-11-03T03:47:34.922Z,54.80
2018-11-03T03:50:03.416Z,55.05
2018-11-03T03:52:31.879Z,55.08
2018-11-03T03:55:00.297Z,55.28
2018-11-03T03:57:28.728Z,55.24
2018-11-03T03:59:57.195Z,54.99
2018-11-03T04:05:32.762Z,55.02
2018-11-03T04:08:01.556Z,55.01
2018-11-03T04:10:29.963Z,54.91
2018-11-03T04:12:58.449Z,55.18
2018-11-03T04:15:27.169Z,55.51
2018-11-03T04:17:55.622Z,55.00
2018-11-03T04:20:24.160Z,55.26
2018-11-03T04:22:52.644Z,55.30
2018-11-03T04:25:22.029Z,55.22
2018-11-03T04:27:50.438Z,55.49
2018-11-03T04:30:18.992Z,55.49
2018-11-03T04:32:47.481Z,55.26
2018-11-03T04:35:15.933Z,55.28
2018-11-03T04:37:44.451Z,55.26
2018-11-03T04:40:13.031Z,55.46
2018-11-03T04:42:41.857Z,55.58
2018-11-03T04:45:11.273Z,55.22
2018-11-03T04:47:39.782Z,55.17
2018-11-03T04:50:09.268Z,55.21
2018-11-03T04:52:37.925Z,55.20
2018-11-03T04:55:07.295Z,55.60
2018-11-03T04:57:35.668Z,55.36
2018-11-03T05:00:04.811Z,55.61
2018-11-03T05:02:33.209Z,55.60
2018-11-03T05:05:02.075Z,55.53
2018-11-03T05:07:30.691Z,55.29
2018-11-03T05:09:59.201Z,55.62
2018-11-03T05:12:27.633Z,55.41
2018-11-03T05:14:56.080Z,55.58
2018-11-03T05:17:24.644Z,55.23
2018-11-03T05:19:53.332Z,55.44
2018-11-03T05:22:21.867Z,55.49
2018-11-03T05:24:50.293Z,55.54
2018-11-03T05:27:18.779Z,55.43
2018-11-03T05:29:47.220Z,55.16
2018-11-03T05:32:15.746Z,55.15
2018-11-03T05:34:44.226Z,55.39
2018-11-03T05:37:12.807Z,55.42
2018-11-03T05:39:41.268Z,55.53
2018-11-03T05:42:09.734Z,55.41
2018-11-03T05:44:38.246Z,55.50
2018-11-03T05:47:07.008Z,55.45
2018-11-03T05:49:35.423Z,55.39
2018-11-03T05:52:03.957Z,55.62
2018-11-03T05:54:32.516Z,55.33
2018-11-03T05:57:00.963Z,55.23
2018-11-03T05:59:29.426Z,55.62
2018-11-03T06:01:58.007Z,55.50
2018-11-03T06:04:26.515Z,55.50
2018-11-03T06:06:55.009Z,55.33
2018-11-03T06:09:24.464Z,55.48
2018-11-03T06:11:53.167Z,55.70
2018-11-03T06:14:21.828Z,55.46
2018-11-03T06:16:50.312Z,55.52
2018-11-03T06:19:18.890Z,55.37
2018-11-03T06:21:47.468Z,55.76
2018-11-03T06:24:16.004Z,55.75
2018-11-03T06:26:44.652Z,55.55
2018-11-03T06:29:13.228Z,55.55
2018-11-03T06:31:41.733Z,55.67
2018-11-03T06:34:10.215Z,55.57
2018-11-03T06:36:38.795Z,55.72
2018-11-03T06:39:08.256Z,55.71
2018-11-03T06:41:36.673Z,55.60
2018-11-03T06:44:05.223Z,55.52
2018-11-03T06:46:33.805Z,55.87
2018-11-03T06:49:33.854Z,55.65
2018-11-03T06:52:02.391Z,55.68
2018-11-03T06:54:30.848Z,55.68
2018-11-03T06:56:59.356Z,55.89
2018-11-03T06:59:27.964Z,55.63
2018-11-03T07:01:56.458Z,55.69
2018-11-03T07:04:25.225Z,55.55
2018-11-03T07:06:53.794Z,55.62
2018-11-03T07:09:23.342Z,55.65
2018-11-03T07:11:52.033Z,55.80
2018-11-03T07:14:20.638Z,55.57
2018-11-03T07:16:49.643Z,55.60
2018-11-03T07:19:18.109Z,55.57
2018-11-03T07:21:46.690Z,55.53
2018-11-03T07:24:15.090Z,55.30
2018-11-03T07:26:43.617Z,55.23
2018-11-03T07:29:12.093Z,55.51
2018-11-03T07:31:40.574Z,55.30
2018-11-03T07:34:09.266Z,55.59
2018-11-03T07:36:37.753Z,55.52
2018-11-03T07:39:08.034Z,55.61
2018-11-03T07:41:36.671Z,55.18
2018-11-03T07:44:06.821Z,55.36
2018-11-03T07:46:35.267Z,55.32
2018-11-03T07:49:03.969Z,55.44
2018-11-03T07:51:32.335Z,55.37
2018-11-03T07:54:01.211Z,55.64
2018-11-03T07:56:29.820Z,55.86
2018-11-03T07:58:58.366Z,55.53
2018-11-03T08:01:26.948Z,55.57
2018-11-03T08:03:55.507Z,55.71
2018-11-03T08:06:24.240Z,55.56
2018-11-03T08:08:52.871Z,55.46
2018-11-03T08:11:21.335Z,55.47
2018-11-03T08:13:49.960Z,55.54
2018-11-03T08:16:18.963Z,55.62
2018-11-03T08:18:47.459Z,55.32
2018-11-03T08:21:16.043Z,55.64
2018-11-03T08:23:44.837Z,55.33
2018-11-03T08:26:13.414Z,55.36
2018-11-03T08:28:42.100Z,55.31
2018-11-03T08:31:10.874Z,55.15
2018-11-03T08:33:39.436Z,55.11
2018-11-03T08:36:08.273Z,54.94
2018-11-03T08:38:37.379Z,55.40
2018-11-03T08:41:07.153Z,55.53
2018-11-03T08:43:36.443Z,55.38
2018-11-03T08:46:06.321Z,55.30
2018-11-03T08:48:34.868Z,54.72
2018-11-03T08:51:03.249Z,55.02
2018-11-03T08:53:31.756Z,54.76
2018-11-03T08:56:00.171Z,54.85
2018-11-03T08:58:28.789Z,54.78
2018-11-03T09:00:57.874Z,54.62
2018-11-03T09:03:26.817Z,54.98
2018-11-03T09:05:55.315Z,54.74
2018-11-03T09:08:23.819Z,55.10
2018-11-03T09:10:52.306Z,54.64
2018-11-03T09:13:20.848Z,54.54
2018-11-03T09:15:49.751Z,54.34
2018-11-03T09:18:18.721Z,54.52
2018-11-03T09:20:47.176Z,54.76
2018-11-03T09:23:15.645Z,54.73
2018-11-03T09:25:44.618Z,54.39
2018-11-03T09:28:13.232Z,54.49
2018-11-03T09:30:41.757Z,54.67
2018-11-03T09:33:10.309Z,54.24
2018-11-03T09:35:39.193Z,54.61
2018-11-03T09:38:07.745Z,54.51
2018-11-03T09:40:36.220Z,54.57
2018-11-03T09:43:05.419Z,54.56
2018-11-03T09:45:33.891Z,54.45
2018-11-03T09:48:02.640Z,54.44
2018-11-03T09:50:31.103Z,54.40
2018-11-03T09:52:59.588Z,54.33
2018-11-03T09:55:28.024Z,53.90
2018-11-03T09:57:56.658Z,53.99
2018-11-03T10:00:25.453Z,54.09
2018-11-03T10:02:53.934Z,53.93
2018-11-03T10:05:22.438Z,53.44
2018-11-03T10:07:50.957Z,54.38
2018-11-03T10:10:19.833Z,54.22
2018-11-03T10:12:49.670Z,53.77
2018-11-03T10:15:18.732Z,54.54
2018-11-03T10:17:47.344Z,53.69
2018-11-03T10:20:16.480Z,54.34
2018-11-03T10:22:45.007Z,53.52
2018-11-03T10:25:16.624Z,53.48
2018-11-03T10:27:45.457Z,53.94
2018-11-03T10:30:15.296Z,53.83
2018-11-03T10:32:44.469Z,53.36
2018-11-03T10:35:13.958Z,54.04
2018-11-03T10:37:42.767Z,53.87
2018-11-03T10:40:16.114Z,53.45
2018-11-03T10:42:45.079Z,53.25
2018-11-03T10:45:14.750Z,53.57
2018-11-03T10:47:43.549Z,53.29
2018-11-03T10:50:15.577Z,53.27
2018-11-03T10:52:45.362Z,53.33
2018-11-03T10:55:15.162Z,53.19
2018-11-03T10:57:43.924Z,52.96
2018-11-03T11:00:21.917Z,52.93
2018-11-03T11:02:55.881Z,53.29
2018-11-03T11:05:30.124Z,53.44
2018-11-03T11:08:04.301Z,53.12
2018-11-03T11:10:38.525Z,52.89
2018-11-03T11:13:12.723Z,52.55
2018-11-03T11:15:41.460Z,52.19
2018-11-03T11:18:10.401Z,52.46
2018-11-03T11:20:38.855Z,52.26
2018-11-03T11:23:08.362Z,51.83
2018-11-03T11:25:36.738Z,51.64
2018-11-03T11:28:05.973Z,51.39
2018-11-03T11:30:36.117Z,51.46
2018-11-03T11:33:07.348Z,51.12
2018-11-03T11:35:35.874Z,51.62
2018-11-03T11:38:04.998Z,50.73
2018-11-03T11:40:33.904Z,50.10
2018-11-03T11:43:03.314Z,50.14
2018-11-03T11:45:31.858Z,49.37
2018-11-03T11:48:00.461Z,49.21
2018-11-03T11:50:28.963Z,48.94
2018-11-03T11:52:57.472Z,48.28
2018-11-03T11:55:26.637Z,48.75
2018-11-03T11:57:55.074Z,48.33
2018-11-03T12:00:27.873Z,48.29
2018-11-03T12:02:56.596Z,48.65
2018-11-03T12:05:25.843Z,48.28
2018-11-03T12:07:54.562Z,46.83
2018-11-03T12:10:23.297Z,46.96
2018-11-03T12:12:51.830Z,46.40
2018-11-03T12:15:20.314Z,46.93
2018-11-03T12:17:48.823Z,46.11
2018-11-03T12:20:17.384Z,45.65
2018-11-03T12:22:45.837Z,45.55
2018-11-03T12:25:14.310Z,44.68
2018-11-03T12:27:42.799Z,44.22
2018-11-03T12:30:13.781Z,44.63
2018-11-03T12:32:42.309Z,43.62
2018-11-03T12:35:10.998Z,43.29
2018-11-03T12:37:39.855Z,43.27
2018-11-03T12:40:13.160Z,42.79
2018-11-03T12:42:41.749Z,42.46
2018-11-03T12:45:11.339Z,42.34
2018-11-03T12:47:40.227Z,42.38
2018-11-03T12:50:11.378Z,41.62
2018-11-03T12:52:39.845Z,42.05
2018-11-03T12:55:09.587Z,40.89
2018-11-03T12:57:38.642Z,40.77
2018-11-03T13:00:11.278Z,41.60
2018-11-03T13:02:40.684Z,41.09
2018-11-03T13:05:09.524Z,40.93
2018-11-03T13:07:39.401Z,40.61
2018-11-03T13:10:09.279Z,40.70
2018-11-03T13:12:38.358Z,40.32
2018-11-03T13:15:08.402Z,40.15
2018-11-03T13:17:37.121Z,39.53
2018-11-03T13:20:07.481Z,39.27
2018-11-03T13:22:36.064Z,39.49
2018-11-03T13:25:05.253Z,40.05
2018-11-03T13:27:33.757Z,39.53
2018-11-03T13:30:02.990Z,38.96
2018-11-03T13:32:31.516Z,39.12
2018-11-03T13:34:59.990Z,39.72
2018-11-03T13:37:29.415Z,38.97
2018-11-03T13:39:57.956Z,38.91
2018-11-03T13:42:26.411Z,39.36
2018-11-03T13:44:54.935Z,39.15
2018-11-03T13:47:23.442Z,38.54
2018-11-03T13:49:51.890Z,39.00
2018-11-03T13:52:20.585Z,38.96
2018-11-03T13:54:49.018Z,38.75
2018-11-03T13:57:17.489Z,38.55
2018-11-03T13:59:45.918Z,39.48
2018-11-03T14:02:14.435Z,38.85
2018-11-03T14:04:43.097Z,39.09
2018-11-03T14:07:11.575Z,39.18
2018-11-03T14:09:40.047Z,39.64
2018-11-03T14:12:08.504Z,38.93
2018-11-03T14:14:37.085Z,39.55
2018-11-03T15:46:58.320Z,45.74
2018-11-03T15:49:26.182Z,45.70
2018-11-03T15:56:30.770Z,45.89
2018-11-03T15:59:02.617Z,46.79
2018-11-03T16:01:31.624Z,46.53
2018-11-03T16:04:00.862Z,46.76
2018-11-03T16:06:29.645Z,46.52
2018-11-03T16:08:59.814Z,46.38
2018-11-03T16:11:29.714Z,46.73
2018-11-03T16:13:58.437Z,47.37
2018-11-03T16:16:36.981Z,47.20
2018-11-03T16:19:15.853Z,46.69
2018-11-03T16:21:43.919Z,47.30
2018-11-03T16:24:11.767Z,47.34
2018-11-03T16:26:39.963Z,47.02
2018-11-03T16:29:07.975Z,47.47
2018-11-03T16:31:36.035Z,47.07
2018-11-03T16:34:04.386Z,47.42
2018-11-03T16:36:32.492Z,47.52
2018-11-03T16:39:00.403Z,47.75
2018-11-03T16:41:29.435Z,48.06
2018-11-03T16:46:37.271Z,48.22
2018-11-03T16:49:05.385Z,48.23
2018-11-03T16:51:34.036Z,48.71
2018-11-03T16:54:02.401Z,48.49
2018-11-03T16:56:30.349Z,48.03
2018-11-03T16:59:08.026Z,48.02
2018-11-03T17:01:35.884Z,48.22
2018-11-03T17:04:04.300Z,48.69
2018-11-03T17:06:32.175Z,48.55
2018-11-03T17:09:00.093Z,48.53
2018-11-03T17:11:41.551Z,49.17
2018-11-03T17:14:10.534Z,48.62
2018-11-03T17:16:38.895Z,48.70
2018-11-03T17:19:06.811Z,48.51
2018-11-03T17:21:34.812Z,48.91
2018-11-03T17:24:02.728Z,49.04
2018-11-03T17:27:33.287Z,48.73
2018-11-03T17:30:02.091Z,49.23
2018-11-03T17:32:30.853Z,49.34
2018-11-03T17:34:59.350Z,49.21
2018-11-03T17:37:29.287Z,49.76
2018-11-03T17:39:58.854Z,49.20
2018-11-03T17:42:42.078Z,49.89
2018-11-03T17:45:13.712Z,49.83
2018-11-03T17:47:42.383Z,49.88
2018-11-03T17:50:12.301Z,50.05
2018-11-03T17:52:40.892Z,49.42
2018-11-03T17:55:09.863Z,49.77
2018-11-03T17:57:38.265Z,50.07
2018-11-03T18:00:15.359Z,49.83
2018-11-03T18:02:44.727Z,49.78
2018-11-03T18:05:13.951Z,49.88
2018-11-03T18:07:42.636Z,49.99
2018-11-03T18:10:40.798Z,50.38
2018-11-03T18:18:16.382Z,49.99
2018-11-03T18:24:24.013Z,50.08
2018-11-03T18:26:52.566Z,50.92
2018-11-03T18:29:21.088Z,50.62
2018-11-03T18:31:49.524Z,50.81
2018-11-03T18:34:18.407Z,50.77
2018-11-03T18:36:46.950Z,51.16
2018-11-03T18:39:15.366Z,50.45
2018-11-03T18:41:43.811Z,50.25
2018-11-03T18:44:12.659Z,50.41
2018-11-03T18:46:41.291Z,50.55
2018-11-03T18:49:09.633Z,50.75
2018-11-03T18:51:38.310Z,50.71
2018-11-03T18:54:06.763Z,50.28
2018-11-03T18:56:35.339Z,50.77
2018-11-03T18:59:04.285Z,50.83
2018-11-03T19:01:32.705Z,51.27
2018-11-03T19:04:01.479Z,50.83
2018-11-03T19:06:29.891Z,50.96
2018-11-03T19:08:59.518Z,51.00
2018-11-03T19:11:27.973Z,50.80
2018-11-03T19:13:56.798Z,51.08
2018-11-03T19:16:25.344Z,51.26
2018-11-03T19:18:53.924Z,51.51
2018-11-03T19:21:22.338Z,51.53
2018-11-03T19:23:50.946Z,50.93
2018-11-03T19:26:19.421Z,51.09
2018-11-03T19:28:48.592Z,51.19
2018-11-03T19:31:17.697Z,51.72
2018-11-03T19:33:46.786Z,51.07
2018-11-03T19:36:15.292Z,51.00
2018-11-03T19:38:44.859Z,51.64
2018-11-03T19:41:13.755Z,51.53
2018-11-03T19:43:43.636Z,51.26
2018-11-03T19:46:12.117Z,51.85
2018-11-03T19:48:40.687Z,51.60
2018-11-03T19:51:09.236Z,51.17
2018-11-03T19:53:37.944Z,51.88
2018-11-03T19:56:06.388Z,51.69
2018-11-03T19:58:35.189Z,51.97
2018-11-03T20:01:03.924Z,51.96
2018-11-03T20:03:33.215Z,51.67
2018-11-03T20:06:01.809Z,52.05
2018-11-03T20:08:30.387Z,51.61
2018-11-03T20:10:58.827Z,51.63
2018-11-03T20:13:27.356Z,52.16
2018-11-03T20:15:56.048Z,51.95
2018-11-03T20:18:24.651Z,51.91
2018-11-03T20:20:53.328Z,51.78
2018-11-03T20:23:21.785Z,51.68
2018-11-03T20:25:50.869Z,51.62
2018-11-03T20:28:19.602Z,51.85
2018-11-03T20:30:48.208Z,51.67
2018-11-03T20:33:17.933Z,51.83
2018-11-03T20:35:46.413Z,51.81
2018-11-03T20:38:15.118Z,51.61
2018-11-03T20:40:44.315Z,52.09
2018-11-03T20:43:12.822Z,52.36
2018-11-03T20:45:41.440Z,52.36
2018-11-03T20:48:09.887Z,52.14
2018-11-03T20:50:38.653Z,51.98
2018-11-03T20:53:07.317Z,51.81
2018-11-03T20:55:35.770Z,52.11
2018-11-03T20:58:04.427Z,52.27
2018-11-03T21:00:33.044Z,51.77
2018-11-03T21:03:01.513Z,52.36
2018-11-03T21:05:31.357Z,52.08
2018-11-03T21:07:59.833Z,52.38
2018-11-03T21:10:28.337Z,52.46
2018-11-03T21:12:56.766Z,51.90
2018-11-03T21:15:25.428Z,52.54
2018-11-03T21:17:53.847Z,52.05
2018-11-03T21:20:22.293Z,52.68
2018-11-03T21:22:50.761Z,51.96
2018-11-03T21:25:19.228Z,52.49
2018-11-03T21:27:47.648Z,52.02
2018-11-03T21:30:16.228Z,52.08
2018-11-03T21:32:44.687Z,52.64
2018-11-03T21:35:13.074Z,52.57
2018-11-03T21:37:41.510Z,52.54
2018-11-03T21:40:10.034Z,52.62
2018-11-03T21:42:38.497Z,52.77
2018-11-03T21:45:07.543Z,52.63
2018-11-03T21:47:36.133Z,52.61
2018-11-03T21:50:05.240Z,52.69
2018-11-03T21:52:33.723Z,52.44
2018-11-03T21:55:02.196Z,52.21
2018-11-03T21:57:31.853Z,52.73
2018-11-03T22:00:00.410Z,52.52
2018-11-03T22:02:28.924Z,52.96
2018-11-03T22:04:57.371Z,53.03
2018-11-03T22:07:25.863Z,53.04
2018-11-03T22:09:54.271Z,52.86
2018-11-03T22:12:22.675Z,52.54
2018-11-03T22:14:51.115Z,52.29
2018-11-03T22:17:19.540Z,52.62
2018-11-03T22:19:48.303Z,53.09
2018-11-03T22:22:16.723Z,52.40
2018-11-03T22:24:45.143Z,52.99
2018-11-03T22:27:14.411Z,52.71
2018-11-03T22:29:42.795Z,53.26
2018-11-03T22:32:11.258Z,52.81
2018-11-03T22:34:39.682Z,52.84
2018-11-03T22:37:08.124Z,52.54
2018-11-03T22:39:36.879Z,52.38
2018-11-03T22:42:05.755Z,53.01
2018-11-03T22:44:34.126Z,52.50
2018-11-03T22:47:02.630Z,52.46
2018-11-03T22:49:32.096Z,52.76
2018-11-03T22:52:04.338Z,52.82
2018-11-03T22:54:32.998Z,52.56
2018-11-03T22:57:01.552Z,52.63
2018-11-03T22:59:30.014Z,52.92
2018-11-03T23:01:58.473Z,52.92
2018-11-03T23:04:26.931Z,53.29
2018-11-03T23:06:55.538Z,53.08
2018-11-03T23:09:24.024Z,53.49
2018-11-03T23:11:52.466Z,53.70
2018-11-03T23:14:20.863Z,53.52
2018-11-03T23:16:49.563Z,53.06
2018-11-03T23:19:17.994Z,53.54
2018-11-03T23:21:46.398Z,53.40
2018-11-03T23:24:14.835Z,53.38
2018-11-03T23:26:43.215Z,53.81
2018-11-03T23:29:11.709Z,53.48
2018-11-03T23:31:40.461Z,53.43
2018-11-03T23:34:08.911Z,53.50
2018-11-03T23:36:37.396Z,54.00
2018-11-03T23:39:08.818Z,53.66
2018-11-03T23:41:37.580Z,54.14
2018-11-03T23:44:06.158Z,53.95
2018-11-03T23:46:34.756Z,53.74
2018-11-03T23:49:03.406Z,53.54
2018-11-03T23:51:33.242Z,54.07
2018-11-03T23:54:01.705Z,53.73
2018-11-03T23:56:30.553Z,53.86
2018-11-03T23:58:58.995Z,53.90
